Time;durP1;ratioP1;P1;durP2;ratioP2;P2;SDS_P1;SDS_P2;PMS_P1;PMS_P2;Temp;Humidity;BMP_temperature;BMP_pressure;BME280_temperature;BME280_humidity;BME280_pressure;Samples;Min_cycle;Max_cycle;Signal;HPM_P1;HPM_P2
2021/06/25 00:02:03;;;;;;;6.40;5.30;;;15.90;73.90;;;;;;5052192;28;20021;-83
2021/06/25 00:04:29;;;;;;;5.78;4.65;;;15.90;73.90;;;;;;5053559;28;20028;-83
2021/06/25 00:06:55;;;;;;;5.20;4.72;;;15.90;74.00;;;;;;5051529;28;20114;-83
2021/06/25 00:09:21;;;;;;;5.53;4.85;;;15.80;73.90;;;;;;5052162;28;20481;-83
2021/06/25 00:11:47;;;;;;;5.57;4.72;;;15.80;74.00;;;;;;5052058;28;20021;-83
2021/06/25 00:14:13;;;;;;;5.70;5.10;;;15.80;74.00;;;;;;5052094;28;20392;-82
2021/06/25 00:16:39;;;;;;;6.68;5.35;;;15.70;74.10;;;;;;5052053;28;20031;-82
2021/06/25 00:19:05;;;;;;;5.60;4.97;;;15.70;74.20;;;;;;5053144;28;20087;-83
2021/06/25 00:21:30;;;;;;;6.53;5.18;;;15.60;74.20;;;;;;5051979;28;20017;-83
2021/06/25 00:23:56;;;;;;;8.57;5.18;;;15.60;74.30;;;;;;5053030;28;20021;-83
2021/06/25 00:26:21;;;;;;;6.07;4.55;;;15.60;74.40;;;;;;5051902;28;20358;-83
2021/06/25 00:28:47;;;;;;;5.47;4.97;;;15.50;74.50;;;;;;5051781;28;20025;-83
2021/06/25 00:31:12;;;;;;;5.93;5.43;;;15.50;74.60;;;;;;5051830;28;20021;-83
2021/06/25 00:33:38;;;;;;;6.10;4.93;;;15.40;74.70;;;;;;5051661;28;20025;-82
2021/06/25 00:36:04;;;;;;;6.47;5.40;;;15.30;74.70;;;;;;5052955;28;20036;-83
2021/06/25 00:38:30;;;;;;;6.88;5.53;;;15.30;74.80;;;;;;5051531;28;20028;-82
2021/06/25 00:40:55;;;;;;;6.88;5.30;;;15.30;74.80;;;;;;5051725;28;20017;-82
2021/06/25 00:43:21;;;;;;;6.95;5.18;;;15.30;74.70;;;;;;5051750;28;20067;-83
2021/06/25 00:45:46;;;;;;;6.10;5.32;;;15.30;74.70;;;;;;5051609;28;20469;-83
2021/06/25 00:48:12;;;;;;;6.53;5.32;;;15.20;74.80;;;;;;5051585;28;20472;-82
2021/06/25 00:50:38;;;;;;;7.10;5.78;;;15.20;74.70;;;;;;5051421;28;20028;-83
2021/06/25 00:53:04;;;;;;;9.50;5.53;;;15.20;74.80;;;;;;5051337;28;20428;-83
2021/06/25 00:55:41;;;;;;;6.00;5.50;;;15.10;74.70;;;;;;5052810;28;20020;-83
2021/06/25 00:58:08;;;;;;;7.50;5.28;;;15.10;74.80;;;;;;5051373;28;20041;-83
2021/06/25 01:00:34;;;;;;;6.43;5.85;;;15.00;74.70;;;;;;5051358;28;20040;-83
2021/06/25 01:03:01;;;;;;;6.05;5.45;;;15.00;74.80;;;;;;5051267;28;20021;-83
2021/06/25 01:05:26;;;;;;;8.20;6.05;;;14.90;74.90;;;;;;5051159;28;20381;-83
2021/06/25 01:07:52;;;;;;;6.30;5.60;;;14.90;75.00;;;;;;5052711;28;20029;-83
2021/06/25 01:10:17;;;;;;;7.93;5.70;;;14.80;75.00;;;;;;5051515;28;20056;-83
2021/06/25 01:12:44;;;;;;;6.28;5.68;;;14.80;75.10;;;;;;5051251;28;20028;-83
2021/06/25 01:15:12;;;;;;;5.88;5.32;;;14.70;75.10;;;;;;5051155;28;20369;-82
2021/06/25 01:17:43;;;;;;;6.72;5.82;;;14.70;75.20;;;;;;5051258;28;20064;-83
2021/06/25 01:20:11;;;;;;;6.65;5.55;;;14.70;75.40;;;;;;5053722;28;20032;-83
2021/06/25 01:22:40;;;;;;;6.05;5.55;;;14.60;75.40;;;;;;5055575;28;20025;-83
2021/06/25 01:25:17;;;;;;;6.80;6.10;;;14.60;75.60;;;;;;5055217;28;20067;-83
2021/06/25 01:27:46;;;;;;;7.03;6.32;;;14.50;75.60;;;;;;5055541;28;20031;-83
2021/06/25 01:30:20;;;;;;;6.30;5.57;;;14.50;76.40;;;;;;5054927;28;20024;-83
2021/06/25 01:32:47;;;;;;;6.85;5.95;;;14.50;75.80;;;;;;5055160;28;20079;-83
2021/06/25 01:35:13;;;;;;;6.78;6.07;;;14.40;75.80;;;;;;5056323;28;20040;-83
2021/06/25 01:37:39;;;;;;;7.35;6.57;;;14.40;75.90;;;;;;5056198;28;20036;-83
2021/06/25 01:40:07;;;;;;;7.60;6.30;;;14.40;76.00;;;;;;5054868;28;20121;-83
2021/06/25 01:42:35;;;;;;;7.15;6.25;;;14.30;76.10;;;;;;5054806;28;20017;-83
2021/06/25 01:45:08;;;;;;;7.22;6.55;;;14.30;76.10;;;;;;5054944;28;20502;-83
2021/06/25 01:47:37;;;;;;;7.05;6.15;;;14.20;76.20;;;;;;5056275;28;20025;-83
2021/06/25 01:50:09;;;;;;;7.68;6.32;;;14.20;76.40;;;;;;5054794;28;20021;-83
2021/06/25 01:52:35;;;;;;;8.05;6.35;;;14.20;76.40;;;;;;5054707;28;20075;-83
2021/06/25 01:55:00;;;;;;;7.03;6.28;;;14.20;76.50;;;;;;5055967;28;20481;-82
2021/06/25 01:57:26;;;;;;;9.02;6.85;;;14.20;76.60;;;;;;5055701;28;20041;-83
2021/06/25 01:59:52;;;;;;;6.82;6.15;;;14.20;76.70;;;;;;5054500;28;20021;-83
2021/06/25 02:02:18;;;;;;;7.75;6.53;;;14.10;76.60;;;;;;5054520;28;20426;-83
2021/06/25 02:04:43;;;;;;;9.18;6.78;;;14.10;76.70;;;;;;5054494;28;20017;-83
2021/06/25 02:07:09;;;;;;;8.93;7.05;;;14.10;76.80;;;;;;5054558;28;20021;-83
2021/06/25 02:23:17;;;;;;;9.00;8.02;;;13.80;77.00;;;;;;5055674;28;20083;-82
2021/06/25 02:25:43;;;;;;;9.30;7.90;;;13.80;76.90;;;;;;5054101;28;20017;-82
2021/06/25 02:28:09;;;;;;;9.95;7.82;;;13.70;76.80;;;;;;5054206;28;20416;-83
2021/06/25 02:30:34;;;;;;;9.13;7.53;;;13.70;76.70;;;;;;5053575;28;20021;-82
2021/06/25 02:33:00;;;;;;;11.68;8.52;;;13.60;76.70;;;;;;5053944;28;20210;-82
2021/06/25 02:35:26;;;;;;;8.43;7.57;;;13.60;76.70;;;;;;5053850;28;20504;-82
2021/06/25 02:37:55;;;;;;;8.73;7.82;;;13.60;76.60;;;;;;5053841;28;20051;-82
2021/06/25 02:40:21;;;;;;;10.25;7.93;;;13.60;76.50;;;;;;5053807;28;20029;-82
2021/06/25 02:42:47;;;;;;;9.05;8.15;;;13.50;76.30;;;;;;5055177;28;20218;-82
2021/06/25 02:45:13;;;;;;;9.10;8.15;;;13.50;76.30;;;;;;5053793;28;20115;-82
2021/06/25 02:47:39;;;;;;;9.77;8.10;;;13.40;76.30;;;;;;5053779;28;20067;-82
2021/06/25 02:50:07;;;;;;;9.20;8.10;;;13.40;76.40;;;;;;5054855;28;20091;-83
2021/06/25 02:52:34;;;;;;;9.50;8.27;;;13.30;76.40;;;;;;5054923;28;20037;-82
2021/06/25 02:55:00;;;;;;;9.15;8.13;;;13.30;76.40;;;;;;5054864;28;20032;-82
2021/06/25 02:57:26;;;;;;;9.50;8.50;;;13.30;76.40;;;;;;5053444;28;20045;-82
2021/06/25 02:59:51;;;;;;;9.52;8.52;;;13.30;76.40;;;;;;5053516;28;20385;-82
2021/06/25 03:02:17;;;;;;;10.35;9.25;;;13.20;76.30;;;;;;5053789;28;20013;-82
2021/06/25 03:04:42;;;;;;;11.88;9.48;;;13.20;76.40;;;;;;5053430;28;20021;-83
2021/06/25 03:07:08;;;;;;;10.13;8.57;;;13.20;76.40;;;;;;5054671;28;20032;-82
2021/06/25 03:09:34;;;;;;;9.55;8.35;;;13.20;76.30;;;;;;5053490;28;20389;-82
2021/06/25 03:11:59;;;;;;;9.65;8.65;;;13.10;76.20;;;;;;5053324;28;20098;-82
2021/06/25 03:14:25;;;;;;;9.23;8.10;;;13.10;76.30;;;;;;5050455;28;20040;-81
2021/06/25 03:16:51;;;;;;;10.05;9.00;;;13.10;76.40;;;;;;5054578;28;20472;-82
2021/06/25 03:19:16;;;;;;;9.98;8.85;;;13.00;76.40;;;;;;5054497;28;20075;-83
2021/06/25 03:21:42;;;;;;;9.50;8.48;;;13.00;76.40;;;;;;5054377;28;20013;-82
2021/06/25 03:24:09;;;;;;;10.20;8.60;;;13.00;76.40;;;;;;5053124;28;20032;-82
2021/06/25 03:26:35;;;;;;;10.23;8.65;;;13.00;76.50;;;;;;5053185;28;20033;-82
2021/06/25 03:29:00;;;;;;;9.60;8.70;;;13.00;76.40;;;;;;5052925;28;20120;-81
2021/06/25 03:31:26;;;;;;;11.02;8.93;;;13.00;76.40;;;;;;5052933;28;20057;-82
2021/06/25 03:33:52;;;;;;;10.18;9.05;;;13.00;76.40;;;;;;5054397;28;20033;-82
2021/06/25 03:36:17;;;;;;;11.45;10.23;;;13.00;76.40;;;;;;5053094;28;20043;-82
2021/06/25 03:38:43;;;;;;;11.95;10.30;;;13.00;76.40;;;;;;5054144;28;20493;-81
2021/06/25 03:41:08;;;;;;;11.00;9.43;;;13.10;76.40;;;;;;5052528;28;20438;-80
2021/06/25 03:43:34;;;;;;;11.85;9.23;;;13.10;76.30;;;;;;5052219;28;20029;-82
2021/06/25 03:46:00;;;;;;;12.00;9.88;;;13.10;76.20;;;;;;5052505;28;20028;-82
2021/06/25 03:48:25;;;;;;;9.73;8.57;;;13.10;76.20;;;;;;5053815;28;20384;-82
2021/06/25 03:50:51;;;;;;;11.93;9.48;;;13.10;76.20;;;;;;5052481;28;20033;-82
2021/06/25 03:53:16;;;;;;;11.18;9.13;;;13.10;76.10;;;;;;5052340;28;20048;-82
2021/06/25 03:58:27;;;;;;;10.88;9.77;;;13.20;76.00;;;;;;5053247;28;20099;-81
2021/06/25 04:00:53;;;;;;;10.98;9.30;;;13.30;75.90;;;;;;5052297;28;20460;-85
2021/06/25 04:03:19;;;;;;;10.05;8.93;;;13.30;75.90;;;;;;5052309;28;20147;-83
2021/06/25 04:05:45;;;;;;;11.35;9.18;;;13.30;75.80;;;;;;5052183;28;20017;-82
2021/06/25 04:08:10;;;;;;;10.07;9.00;;;13.50;75.80;;;;;;5052047;28;20025;-84
2021/06/25 04:10:36;;;;;;;10.73;8.70;;;13.50;75.70;;;;;;5052123;28;20033;-84
2021/06/25 04:13:02;;;;;;;11.43;9.77;;;13.60;75.60;;;;;;5053426;28;20043;-83
2021/06/25 04:15:28;;;;;;;10.40;9.32;;;13.70;75.50;;;;;;5052048;28;20078;-82
2021/06/25 04:17:53;;;;;;;11.27;8.80;;;13.80;75.40;;;;;;5051917;28;20128;-83
2021/06/25 04:20:19;;;;;;;10.43;8.73;;;13.80;75.30;;;;;;5051908;28;20025;-84
2021/06/25 04:22:44;;;;;;;10.68;9.20;;;14.00;75.30;;;;;;5051974;28;20013;-84
2021/06/25 04:25:11;;;;;;;10.30;9.15;;;14.10;75.10;;;;;;5053004;28;20056;-84
2021/06/25 04:27:36;;;;;;;10.82;9.13;;;14.20;75.00;;;;;;5051953;28;20021;-82
2021/06/25 04:30:04;;;;;;;11.10;9.32;;;14.20;74.90;;;;;;5051859;28;20024;-84
2021/06/25 04:32:31;;;;;;;12.75;9.95;;;14.40;74.80;;;;;;5052442;28;20029;-82
2021/06/25 04:34:56;;;;;;;13.57;10.35;;;14.50;74.70;;;;;;5053638;28;20111;-82
2021/06/25 04:37:22;;;;;;;12.02;10.65;;;14.60;74.60;;;;;;5053071;28;20056;-83
2021/06/25 04:39:47;;;;;;;14.50;11.23;;;14.70;74.40;;;;;;5052938;28;20013;-84
2021/06/25 04:42:13;;;;;;;12.60;11.20;;;14.80;74.40;;;;;;5052712;28;20389;-84
2021/06/25 04:44:39;;;;;;;11.90;10.70;;;14.90;74.90;;;;;;5052871;28;20407;-84
2021/06/25 04:47:05;;;;;;;11.68;10.45;;;15.00;74.20;;;;;;5052929;28;20028;-81
2021/06/25 04:49:32;;;;;;;13.93;10.95;;;15.10;74.20;;;;;;5052874;28;20017;-83
2021/06/25 04:51:57;;;;;;;14.43;11.27;;;15.10;74.00;;;;;;5052052;28;20025;-83
2021/06/25 04:54:23;;;;;;;13.40;11.88;;;15.20;73.90;;;;;;5051123;28;20021;-84
2021/06/25 04:56:48;;;;;;;14.65;11.90;;;15.30;73.80;;;;;;5051234;28;20043;-83
2021/06/25 04:59:14;;;;;;;14.85;12.65;;;15.40;73.80;;;;;;5051354;28;20373;-81
2021/06/25 05:01:40;;;;;;;13.70;12.10;;;15.50;73.80;;;;;;5051076;28;20021;-81
2021/06/25 05:04:05;;;;;;;13.15;11.65;;;15.50;73.70;;;;;;5052499;28;20020;-82
2021/06/25 05:06:31;;;;;;;14.05;11.88;;;15.60;73.70;;;;;;5052651;28;20028;-84
2021/06/25 05:08:57;;;;;;;15.18;12.57;;;15.60;73.60;;;;;;5051306;28;20029;-83
2021/06/25 05:11:22;;;;;;;15.18;12.55;;;15.60;73.50;;;;;;5051276;28;20029;-83
2021/06/25 05:13:48;;;;;;;14.73;12.52;;;15.70;73.50;;;;;;5052408;28;20025;-82
2021/06/25 05:16:14;;;;;;;15.63;12.68;;;15.70;73.40;;;;;;5051264;28;20044;-82
2021/06/25 05:18:40;;;;;;;13.75;12.10;;;15.60;73.20;;;;;;5050870;28;20025;-82
2021/06/25 05:21:06;;;;;;;14.50;12.32;;;15.60;73.30;;;;;;5051027;28;20017;-82
2021/06/25 05:23:31;;;;;;;13.05;11.75;;;15.60;73.30;;;;;;5052444;28;20021;-82
2021/06/25 05:25:58;;;;;;;15.40;12.07;;;15.60;73.30;;;;;;5050945;28;20086;-82
2021/06/25 05:28:23;;;;;;;13.82;11.88;;;15.60;73.30;;;;;;5051140;28;20028;-83
2021/06/25 05:30:49;;;;;;;13.45;11.75;;;15.70;73.30;;;;;;5051027;28;20025;-82
2021/06/25 05:33:15;;;;;;;14.30;11.82;;;15.70;73.10;;;;;;5050997;28;20385;-82
2021/06/25 05:39:03;;;;;;;13.57;11.75;;;15.80;72.70;;;;;;5052279;28;20082;-82
2021/06/25 05:41:28;;;;;;;15.98;11.65;;;15.90;72.50;;;;;;5050857;28;20336;-83
2021/06/25 05:43:54;;;;;;;13.07;10.45;;;15.90;73.00;;;;;;5051004;28;20017;-83
2021/06/25 05:46:20;;;;;;;12.23;9.75;;;16.00;72.20;;;;;;5050972;28;20032;-83
2021/06/25 05:48:45;;;;;;;12.40;9.35;;;16.10;71.90;;;;;;5051056;28;20035;-83
2021/06/25 05:51:11;;;;;;;11.60;8.52;;;16.20;71.50;;;;;;5050615;28;20021;-83
2021/06/25 05:53:38;;;;;;;11.82;9.48;;;16.20;71.00;;;;;;5052085;28;20029;-83
2021/06/25 05:56:05;;;;;;;11.57;9.55;;;16.30;70.60;;;;;;5050708;28;20029;-83
2021/06/25 05:58:31;;;;;;;10.60;9.50;;;16.40;70.30;;;;;;5051271;28;20635;-83
2021/06/25 06:00:56;;;;;;;10.25;8.73;;;16.40;69.80;;;;;;5050491;28;20067;-82
2021/06/25 06:03:22;;;;;;;12.77;9.43;;;16.40;69.40;;;;;;5050605;28;20013;-83
2021/06/25 06:05:48;;;;;;;10.35;8.23;;;16.50;69.80;;;;;;5053605;28;20455;-82
2021/06/25 06:08:13;;;;;;;12.77;9.52;;;16.50;68.80;;;;;;5055436;28;20059;-83
2021/06/25 06:10:39;;;;;;;9.20;8.27;;;16.50;68.20;;;;;;5053970;28;20031;-83
2021/06/25 06:16:26;;;;;;;9.70;8.50;;;16.60;67.80;;;;;;5055451;28;20047;-82
2021/06/25 06:18:52;;;;;;;10.82;8.70;;;16.70;67.60;;;;;;5053972;28;20025;-82
2021/06/25 06:21:21;;;;;;;10.93;7.45;;;16.80;67.30;;;;;;5053915;28;20443;-82
2021/06/25 06:32:36;;;;;;;10.02;7.32;;;17.10;66.20;;;;;;5055222;28;20094;-82
2021/06/25 06:34:50;;;;;;;8.52;7.32;;;17.10;66.10;;;;;;5054557;28;20028;-82
2021/06/25 06:37:18;;;;;;;12.20;8.43;;;17.10;66.10;;;;;;5053458;28;20021;-82
2021/06/25 06:39:44;;;;;;;12.48;7.90;;;17.10;65.90;;;;;;5053354;28;20059;-82
2021/06/25 06:42:10;;;;;;;8.77;7.85;;;17.10;65.80;;;;;;5053327;28;20021;-82
2021/06/25 06:44:36;;;;;;;9.50;7.40;;;17.10;65.70;;;;;;5054643;28;20162;-82
2021/06/25 06:47:01;;;;;;;9.30;6.80;;;17.20;65.70;;;;;;5054814;28;20028;-82
2021/06/25 06:49:27;;;;;;;7.10;6.40;;;17.20;65.40;;;;;;5054556;28;20445;-81
2021/06/25 06:51:53;;;;;;;8.25;6.53;;;17.20;65.70;;;;;;5054474;28;20104;-82
2021/06/25 06:54:18;;;;;;;10.20;6.70;;;17.20;65.40;;;;;;5053339;28;20082;-82
2021/06/25 06:56:44;;;;;;;8.30;6.57;;;17.30;65.40;;;;;;5053117;28;20018;-82
2021/06/25 06:59:09;;;;;;;8.80;7.70;;;17.30;65.20;;;;;;5054308;28;20044;-82
2021/06/25 07:01:35;;;;;;;9.43;7.78;;;17.40;65.00;;;;;;5053201;28;20071;-82
2021/06/25 07:04:02;;;;;;;11.13;8.73;;;17.40;64.80;;;;;;5053017;28;20028;-82
2021/06/25 07:06:28;;;;;;;9.48;7.97;;;17.40;64.70;;;;;;5053294;28;20045;-81
2021/06/25 07:08:54;;;;;;;10.57;8.50;;;17.40;64.50;;;;;;5054455;28;20139;-82
2021/06/25 07:11:20;;;;;;;11.73;8.85;;;17.50;64.20;;;;;;5054814;28;20103;-82
2021/06/25 07:13:45;;;;;;;11.07;9.18;;;17.50;64.20;;;;;;5054439;28;20554;-83
2021/06/25 07:16:14;;;;;;;12.55;9.85;;;17.50;64.10;;;;;;5053282;28;20067;-82
2021/06/25 07:18:41;;;;;;;11.57;9.13;;;17.70;63.80;;;;;;5052846;28;20021;-82
2021/06/25 07:21:07;;;;;;;12.10;8.80;;;17.80;63.70;;;;;;5054217;28;20032;-82
2021/06/25 07:23:33;;;;;;;10.40;8.88;;;17.90;63.60;;;;;;5052982;28;20021;-82
2021/06/25 07:25:59;;;;;;;9.95;7.93;;;18.00;63.50;;;;;;5052665;28;20079;-83
2021/06/25 07:28:24;;;;;;;10.07;7.05;;;18.10;63.50;;;;;;5052676;28;20396;-80
2021/06/25 07:30:50;;;;;;;8.00;6.63;;;18.20;63.70;;;;;;5052597;28;20396;-82
2021/06/25 07:36:39;;;;;;;10.05;8.25;;;18.40;63.50;;;;;;5054221;28;20036;-83
2021/06/25 07:39:08;;;;;;;10.43;8.60;;;18.50;63.50;;;;;;5052523;28;20045;-82
2021/06/25 07:41:33;;;;;;;8.07;6.95;;;18.70;63.40;;;;;;5050082;28;20033;-83
2021/06/25 07:43:59;;;;;;;10.02;8.02;;;18.80;63.30;;;;;;5052593;28;20028;-82
2021/06/25 07:46:25;;;;;;;11.20;8.88;;;19.00;63.20;;;;;;5052357;28;20606;-82
2021/06/25 07:48:50;;;;;;;14.18;10.15;;;19.10;62.90;;;;;;5052214;28;20051;-83
2021/06/25 07:51:16;;;;;;;11.48;8.75;;;19.20;62.60;;;;;;5052366;28;20021;-82
2021/06/25 07:53:42;;;;;;;7.07;6.13;;;19.30;62.40;;;;;;5052654;28;20021;-82
2021/06/25 07:56:08;;;;;;;9.80;8.05;;;19.40;62.60;;;;;;5053630;28;20107;-82
2021/06/25 07:58:34;;;;;;;7.80;6.53;;;19.40;62.60;;;;;;5052130;28;20111;-82
2021/06/25 08:00:59;;;;;;;8.93;8.02;;;19.40;62.80;;;;;;5051984;28;20016;-81
2021/06/25 08:03:25;;;;;;;11.48;9.65;;;19.30;63.00;;;;;;5053527;28;20476;-82
2021/06/25 08:05:53;;;;;;;12.50;9.05;;;19.20;63.00;;;;;;5051943;28;20427;-82
2021/06/25 08:08:19;;;;;;;10.07;9.00;;;19.10;63.20;;;;;;5051943;28;20457;-82
2021/06/25 08:10:45;;;;;;;10.45;8.35;;;19.10;63.40;;;;;;5053196;28;20036;-82
2021/06/25 08:13:10;;;;;;;11.15;9.02;;;19.10;63.70;;;;;;5052143;28;20022;-82
2021/06/25 08:15:36;;;;;;;11.35;9.15;;;19.00;63.80;;;;;;5052184;28;20052;-83
2021/06/25 08:18:02;;;;;;;13.40;10.52;;;19.00;63.90;;;;;;5051771;28;20033;-83
2021/06/25 08:20:28;;;;;;;12.43;10.07;;;19.00;64.00;;;;;;5052688;28;20116;-82
2021/06/25 08:22:53;;;;;;;16.20;11.85;;;19.00;64.10;;;;;;5054100;28;20095;-82
2021/06/25 08:25:19;;;;;;;15.05;11.45;;;19.00;64.20;;;;;;5052073;28;20024;-82
2021/06/25 08:31:07;;;;;;;15.25;11.50;;;18.90;64.50;;;;;;5053607;28;20204;-82
2021/06/25 08:33:32;;;;;;;14.77;10.90;;;18.70;64.70;;;;;;5052128;28;20049;-82
2021/06/25 08:35:58;;;;;;;16.13;12.88;;;18.70;65.00;;;;;;5053126;28;20158;-82
2021/06/25 08:38:23;;;;;;;17.33;14.10;;;18.70;65.20;;;;;;5054820;28;20051;-82
2021/06/25 08:40:49;;;;;;;17.50;13.82;;;18.70;65.30;;;;;;5053909;28;20071;-82
2021/06/25 08:43:16;;;;;;;16.60;12.50;;;18.60;65.40;;;;;;5052668;28;20104;-83
2021/06/25 08:45:41;;;;;;;18.38;13.90;;;18.60;65.50;;;;;;5053860;28;20048;-82
2021/06/25 08:48:09;;;;;;;17.77;13.52;;;18.60;65.60;;;;;;5052283;28;20025;-81
2021/06/25 08:50:39;;;;;;;18.17;14.35;;;18.60;65.80;;;;;;5052161;28;20024;-82
2021/06/25 08:53:06;;;;;;;16.05;13.38;;;18.60;65.80;;;;;;5052557;28;20024;-82
2021/06/25 08:55:32;;;;;;;17.45;13.73;;;18.70;65.90;;;;;;5053895;28;20104;-82
2021/06/25 08:57:58;;;;;;;16.70;13.75;;;18.70;66.00;;;;;;5052118;28;20043;-82
2021/06/25 09:00:24;;;;;;;13.95;11.48;;;18.80;66.00;;;;;;5053348;28;20388;-84
2021/06/25 09:02:49;;;;;;;17.15;13.13;;;18.80;66.00;;;;;;5053299;28;20025;-84
2021/06/25 09:05:21;;;;;;;16.58;13.10;;;18.90;66.00;;;;;;5052358;28;20029;-83
2021/06/25 09:07:47;;;;;;;17.52;13.77;;;18.90;66.00;;;;;;5052134;28;20166;-82
2021/06/25 09:10:14;;;;;;;14.68;11.43;;;18.90;66.00;;;;;;5051961;28;20091;-82
2021/06/25 09:12:40;;;;;;;13.20;10.85;;;19.00;66.10;;;;;;5052179;28;20025;-83
2021/06/25 09:15:15;;;;;;;14.32;12.20;;;19.00;66.20;;;;;;5053082;28;20440;-83
2021/06/25 09:18:03;;;;;;;16.63;13.30;;;19.00;66.30;;;;;;5051833;28;20473;-83
2021/06/25 09:20:38;;;;;;;15.93;12.75;;;19.00;66.40;;;;;;5051799;28;20028;-83
2021/06/25 09:23:21;;;;;;;15.90;12.57;;;19.00;66.50;;;;;;5051079;28;20036;-82
2021/06/25 09:25:59;;;;;;;17.08;13.15;;;19.00;66.50;;;;;;5051214;28;20541;-84
2021/06/25 09:28:33;;;;;;;16.88;12.70;;;19.00;66.50;;;;;;5051530;28;20029;-84
2021/06/25 09:30:59;;;;;;;17.63;13.75;;;19.10;66.70;;;;;;5051351;28;20021;-82
2021/06/25 09:33:24;;;;;;;15.48;11.57;;;19.10;66.70;;;;;;5052601;28;20025;-84
2021/06/25 09:35:56;;;;;;;16.48;13.60;;;19.10;66.60;;;;;;5051860;28;20482;-84
2021/06/25 09:38:37;;;;;;;14.77;12.38;;;19.20;66.60;;;;;;5051060;28;20025;-82
2021/06/25 09:41:15;;;;;;;19.10;12.40;;;19.30;66.40;;;;;;5050444;28;20366;-84
2021/06/25 09:43:41;;;;;;;14.88;12.50;;;19.40;66.10;;;;;;5054876;28;20017;-83
2021/06/25 09:46:06;;;;;;;16.55;12.05;;;19.50;65.90;;;;;;5054907;28;20017;-83
2021/06/25 09:52:00;;;;;;;4.95;3.90;;;19.80;65.30;;;;;;5056410;28;20024;-84
2021/06/25 09:54:27;;;;;;;12.27;9.27;;;20.00;64.50;;;;;;5054783;28;20021;-84
2021/06/25 09:57:15;;;;;;;10.05;8.30;;;20.00;64.50;;;;;;5055718;28;20056;-84
2021/06/25 10:05:38;;;;;;;14.85;11.55;;;20.10;64.10;;;;;;5055927;28;20129;-81
2021/06/25 10:08:03;;;;;;;13.10;10.32;;;20.20;64.00;;;;;;5054715;28;20477;-83
2021/06/25 10:10:29;;;;;;;9.18;6.82;;;20.20;63.60;;;;;;5055708;28;20029;-83
2021/06/25 10:12:55;;;;;;;12.60;8.73;;;20.30;63.70;;;;;;5054327;28;20025;-83
2021/06/25 10:15:21;;;;;;;11.85;9.55;;;20.30;63.60;;;;;;5055627;28;20028;-83
2021/06/25 10:17:47;;;;;;;13.82;9.82;;;20.30;63.50;;;;;;5055571;28;20111;-83
2021/06/25 10:20:13;;;;;;;15.63;11.18;;;20.40;63.40;;;;;;5054245;28;20051;-82
2021/06/25 10:22:48;;;;;;;12.80;10.07;;;20.50;63.10;;;;;;5054007;28;20100;-82
2021/06/25 10:25:15;;;;;;;13.95;10.10;;;20.60;62.80;;;;;;5054077;28;20365;-82
2021/06/25 10:27:41;;;;;;;15.85;11.55;;;20.70;62.50;;;;;;5054189;28;20013;-82
2021/06/25 10:30:07;;;;;;;12.85;11.25;;;20.70;62.20;;;;;;5055227;28;20025;-82
2021/06/25 10:32:37;;;;;;;14.73;11.25;;;20.70;62.20;;;;;;5055283;28;20013;-81
2021/06/25 10:35:09;;;;;;;14.38;9.95;;;20.60;62.00;;;;;;5053836;28;20027;-82
2021/06/25 10:37:34;;;;;;;15.60;11.57;;;20.60;62.10;;;;;;5053694;28;20029;-82
2021/06/25 10:40:22;;;;;;;17.20;12.90;;;20.50;62.20;;;;;;5053695;28;20028;-82
2021/06/25 10:42:48;;;;;;;19.45;13.07;;;20.40;62.30;;;;;;5053806;28;20036;-83
2021/06/25 10:45:13;;;;;;;15.65;12.40;;;20.10;62.60;;;;;;5055317;28;20473;-82
2021/06/25 10:47:55;;;;;;;18.65;13.30;;;19.90;63.20;;;;;;5053891;28;20477;-82
2021/06/25 10:50:22;;;;;;;15.82;12.13;;;19.80;63.60;;;;;;5053786;28;20400;-81
2021/06/25 10:53:16;;;;;;;14.68;12.00;;;19.80;63.90;;;;;;5053257;28;20131;-82
2021/06/25 10:55:46;;;;;;;14.70;11.73;;;19.80;64.00;;;;;;5053479;28;20444;-81
2021/06/25 10:58:23;;;;;;;15.48;11.70;;;19.90;64.00;;;;;;5054800;28;20045;-81
2021/06/25 11:00:57;;;;;;;12.70;10.55;;;20.10;63.80;;;;;;5053519;28;20025;-81
2021/06/25 11:06:51;;;;;;;12.10;10.15;;;20.40;63.30;;;;;;5054957;28;20031;-84
2021/06/25 11:09:19;;;;;;;16.60;12.95;;;20.60;63.10;;;;;;5053250;28;20480;-83
2021/06/25 11:11:45;;;;;;;14.05;10.43;;;20.80;62.70;;;;;;5053231;28;20128;-83
2021/06/25 11:17:50;;;;;;;13.30;11.68;;;21.00;62.40;;;;;;5054684;28;20032;-82
2021/06/25 11:20:17;;;;;;;14.20;11.00;;;21.00;62.20;;;;;;5053369;28;20435;-83
2021/06/25 11:22:49;;;;;;;14.00;12.35;;;21.10;62.20;;;;;;5054175;28;20021;-85
2021/06/25 11:25:48;;;;;;;14.10;11.68;;;21.10;61.90;;;;;;5054784;28;20025;-83
2021/06/25 11:28:18;;;;;;;14.43;11.15;;;21.20;61.80;;;;;;5053022;28;20079;-83
2021/06/25 11:31:08;;;;;;;16.05;10.88;;;21.30;61.70;;;;;;5053153;28;20025;-83
2021/06/25 11:36:33;;;;;;;14.55;11.48;;;21.50;61.50;;;;;;5054293;28;20334;-83
2021/06/25 11:39:18;;;;;;;13.45;10.85;;;21.60;61.40;;;;;;5052813;28;20119;-84
2021/06/25 11:42:07;;;;;;;10.57;9.48;;;21.70;61.20;;;;;;5052765;28;20500;-82
2021/06/25 11:44:36;;;;;;;13.60;11.13;;;21.80;61.00;;;;;;5052894;28;20035;-83
2021/06/25 11:47:04;;;;;;;12.95;11.00;;;21.90;60.90;;;;;;5052836;28;20560;-83
2021/06/25 11:49:43;;;;;;;12.25;10.27;;;22.00;60.70;;;;;;5052682;28;20430;-82
2021/06/25 11:55:31;;;;;;;13.50;11.00;;;22.10;60.30;;;;;;5054346;28;20502;-82
2021/06/25 11:57:57;;;;;;;14.05;10.93;;;22.20;60.30;;;;;;5052367;28;20131;-85
2021/06/25 12:00:24;;;;;;;12.27;10.70;;;22.20;60.20;;;;;;5052238;28;20484;-84
2021/06/25 12:02:53;;;;;;;12.80;11.40;;;22.20;60.20;;;;;;5051699;28;20444;-83
2021/06/25 12:05:28;;;;;;;12.93;10.75;;;22.30;60.20;;;;;;5052423;28;20370;-83
2021/06/25 12:08:16;;;;;;;14.57;10.98;;;22.40;60.10;;;;;;5052630;28;20480;-84
2021/06/25 12:10:54;;;;;;;11.43;9.70;;;22.60;60.00;;;;;;5051386;28;20095;-82
2021/06/25 12:13:20;;;;;;;12.48;10.13;;;22.70;60.00;;;;;;5052611;28;20033;-83
2021/06/25 12:15:48;;;;;;;11.88;10.07;;;22.80;59.90;;;;;;5052159;28;20021;-83
2021/06/25 12:18:24;;;;;;;15.20;12.63;;;22.80;59.70;;;;;;5054347;28;20082;-84
2021/06/25 12:21:06;;;;;;;13.45;10.70;;;22.90;59.20;;;;;;5049450;28;20496;-84
2021/06/25 12:23:32;;;;;;;12.55;10.45;;;22.80;59.30;;;;;;5032055;28;20056;-84
2021/06/25 12:29:24;;;;;;;;;;;22.80;59.30;;;;;;5052227;28;20048;-84
2021/06/25 12:31:51;;;;;;;12.63;10.05;;;22.80;58.80;;;;;;5034706;28;19905;-83
2021/06/25 12:34:16;;;;;;;12.55;10.13;;;22.70;58.90;;;;;;5051276;28;20481;-82
2021/06/25 12:36:43;;;;;;;10.27;8.50;;;22.60;58.80;;;;;;5034868;28;20087;-82
2021/06/25 12:39:48;;;;;;;10.93;9.20;;;22.60;58.80;;;;;;5034402;28;20033;-82
2021/06/25 12:42:21;;;;;;;11.73;8.10;;;22.60;58.60;;;;;;5034260;28;20032;-83
2021/06/25 12:44:47;;;;;;;9.23;7.50;;;22.50;58.30;;;;;;5034439;28;20543;-83
2021/06/25 12:47:12;;;;;;;10.15;7.20;;;22.60;58.30;;;;;;5050908;28;20464;-83
2021/06/25 12:49:40;;;;;;;8.75;7.38;;;22.70;57.90;;;;;;5034085;28;20052;-82
2021/06/25 12:52:25;;;;;;;8.85;6.90;;;22.80;57.20;;;;;;5034368;28;20125;-83
2021/06/25 12:54:51;;;;;;;7.53;5.82;;;22.70;56.10;;;;;;5050744;28;20040;-83
2021/06/25 12:57:20;;;;;;;7.05;5.93;;;22.80;56.30;;;;;;5050945;28;20167;-83
2021/06/25 12:59:52;;;;;;;7.55;6.40;;;22.90;56.30;;;;;;5034083;28;20029;-83
2021/06/25 13:02:19;;;;;;;8.85;5.68;;;23.00;55.80;;;;;;5034122;28;20429;-83
2021/06/25 13:04:45;;;;;;;8.63;6.15;;;23.10;55.30;;;;;;5050959;28;20024;-83
2021/06/25 13:07:20;;;;;;;7.85;5.70;;;23.10;54.80;;;;;;5050975;28;20381;-83
2021/06/25 13:09:46;;;;;;;8.80;6.50;;;23.10;54.60;;;;;;5034216;28;20456;-83
2021/06/25 13:12:21;;;;;;;7.68;6.43;;;23.10;54.00;;;;;;5033988;28;20059;-82
2021/06/25 13:14:48;;;;;;;11.25;6.32;;;23.20;53.80;;;;;;5052621;28;20065;-82
2021/06/25 13:17:19;;;;;;;7.13;6.10;;;23.20;54.20;;;;;;5055301;28;20025;-83
2021/06/25 13:19:58;;;;;;;8.98;6.32;;;23.20;54.20;;;;;;5051295;28;20407;-83
2021/06/25 13:22:51;;;;;;;7.05;4.90;;;23.30;54.10;;;;;;5056721;28;20021;-83
2021/06/25 13:25:31;;;;;;;6.38;5.68;;;23.40;54.30;;;;;;5055767;28;20396;-82
2021/06/25 13:27:57;;;;;;;7.28;5.90;;;23.40;54.10;;;;;;5056626;28;20104;-82
2021/06/25 13:30:25;;;;;;;8.43;6.55;;;23.40;54.20;;;;;;5056529;28;20079;-84
2021/06/25 13:33:01;;;;;;;10.10;6.80;;;23.40;54.30;;;;;;5056430;28;20188;-83
2021/06/25 13:35:39;;;;;;;10.35;6.70;;;23.40;54.70;;;;;;5055241;28;20096;-83
2021/06/25 13:38:35;;;;;;;8.38;6.60;;;23.30;55.10;;;;;;5056379;28;20037;-83
2021/06/25 13:41:06;;;;;;;9.88;7.95;;;23.40;55.30;;;;;;5036769;28;20031;-83
2021/06/25 13:43:34;;;;;;;6.88;6.18;;;23.40;55.20;;;;;;5054918;28;20021;-84
2021/06/25 13:46:14;;;;;;;6.93;5.63;;;23.40;55.40;;;;;;5055026;28;20031;-83
2021/06/25 13:48:42;;;;;;;6.90;6.20;;;23.50;55.40;;;;;;5055254;28;20029;-83